EGSHEGGW

Guest
Details From EGSH - Norwich
To EGGW - London Luton
Flight Number -
Tags generated
Created
Modified
Stats Distance 78 nm / 144 km
Max Altitude 3,300 ft / 1,006 m
Waypoints 3
Social Downloads 1
Likes 0
Share

Download

Looking for another format? Having issues loading an existing format? Contact us
Advertisement - Login to hide

Notes

Basic altitude profile: - Ascent Rate: 2500ft/min - Ascent Speed: 250kts - Cruise Altitude: 12000ft - Cruise Speed: 420kts - Descent Rate: 1500ft/min - Descent Speed: 250kts Options: - Use NATs: yes - Use PACOTS: yes - Use low airways: yes - Use high airways: yes

Route

EGSH STOAT EGGW

ID Type Via Altitude (ft/m) Position (lat/lon) Dist (leg/tot) Name
O EGSH APT - 0 / 0 52.67686 / 1.28449 - / 0 nm Norwich
STOAT FIX - 3,300 / 1,006 52.02583 / -0.02083 61 / 61 nm
O EGGW APT - 0 / 0 51.87463 / -0.36845 15 / 77 nm London Luton

Altitude Profile

Advertisement - Login to hide

EGSH

Details ICAO EGSH (NWI)
Name Norwich
Region United Kingdom
Timezone Europe/London (UTC+0.0)
Stats Elevation 117 ft / 36 m (AMSL)
Location 52.675900° 1.282650°
Runways 1
Magnetic Variation 0.349° E

METAR

EGSH 251350Z 22012KT 190V250 9999 FEW026 13/07 Q0995 NOSIG

Decode

TAF

Not found

Departure Runways

ID Width Length Bearing (true/mag) Surface Threshold Overrun Markings Lighting
09 148 ft / 45 m 5,990 ft / 1,826 m 89.27° / 88.92° ASPHALT 0 ft / 0 m 0 ft / 0 m UK-APP CENTERLINE EDGE THRESHOLD CALVERT-ILS
27 148 ft / 45 m 5,990 ft / 1,826 m 269.29° / 268.94° ASPHALT 0 ft / 0 m 26 ft / 8 m UK-PREC-APP CENTERLINE EDGE THRESHOLD ALSF-I

EGGW

Details ICAO EGGW (LTN)
Name London Luton
Region United Kingdom
Timezone Europe/London (UTC+0.0)
Stats Elevation 524 ft / 160 m (AMSL)
Location 51.874600° -0.368432°
Runways 1
Magnetic Variation 0.149° W

METAR

EGGW 251420Z AUTO 20011KT 9999 SCT027 12/07 Q0995

Decode

TAF

TAF EGGW 251052Z 2512/2612 20012KT 9999 SCT030 TEMPO 2512/2520 7000 SHRA PROB30 TEMPO 2512/2520 22015G25KT 4000 +SHRA TEMPO 2610/2612 7000 SHRA

Decode

Destination Runways

ID Width Length Bearing (true/mag) Surface Threshold Overrun Markings Lighting
07 150 ft / 46 m 7,067 ft / 2,154 m 74.35° / 74.50° ASPHALT 0 ft / 0 m 197 ft / 60 m UK-PREC-APP CENTERLINE EDGE THRESHOLD ALSF-I REIL-OMNI
25 150 ft / 46 m 7,067 ft / 2,154 m 254.37° / 254.52° ASPHALT 279 ft / 85 m 0 ft / 0 m UK-PREC-APP CENTERLINE EDGE THRESHOLD CALVERT REIL-OMNI

Approach Navaids

Runway Type Ident Frequency Range Bearing (true/mag) Slope Elevation
07 GS ILTN 109.15 MHz 10 nm / 19 km 74.36° / 74.51 ° 3.00° 526 ft / 160 m (AMSL)
07 LOC-ILS ILTN 109.15 MHz 18 nm / 33 km 74.36° / 74.51 ° - 526 ft / 160 m (AMSL)
25 LOC-ILS ILJ 109.15 MHz 18 nm / 33 km 254.36° / 254.51 ° - 526 ft / 160 m (AMSL)
25 GS ILJ 109.15 MHz 10 nm / 19 km 254.36° / 254.51 ° 3.00° 526 ft / 160 m (AMSL)

Popular Alternatives